createdAt,value
2019-05-19T00:00:12.294Z,15.47
2019-05-19T00:05:16.588Z,14.67
2019-05-19T00:10:31.775Z,14.80
2019-05-19T00:15:41.929Z,15.80
2019-05-19T00:21:04.370Z,15.50
2019-05-19T00:26:10.123Z,15.53
2019-05-19T00:31:16.766Z,16.17
2019-05-19T00:36:30.530Z,18.17
2019-05-19T00:41:39.726Z,17.67
2019-05-19T00:46:48.097Z,16.17
2019-05-19T00:51:53.024Z,15.40
2019-05-19T00:57:00.910Z,14.03
2019-05-19T01:02:05.199Z,14.50
2019-05-19T01:07:09.320Z,14.60
2019-05-19T01:12:23.140Z,13.73
2019-05-19T01:17:30.036Z,13.67
2019-05-19T01:22:36.928Z,14.10
2019-05-19T01:27:44.071Z,14.40
2019-05-19T01:32:50.503Z,14.43
2019-05-19T01:38:02.748Z,14.70
2019-05-19T01:43:07.143Z,12.87
2019-05-19T01:48:20.559Z,13.47
2019-05-19T01:53:27.487Z,13.60
2019-05-19T01:58:44.251Z,13.57
2019-05-19T02:03:56.996Z,14.23
2019-05-19T02:09:08.312Z,12.90
2019-05-19T02:14:17.106Z,13.97
2019-05-19T02:19:24.360Z,14.10
2019-05-19T02:24:28.406Z,14.87
2019-05-19T02:29:34.116Z,14.03
2019-05-19T02:34:40.148Z,13.20
2019-05-19T02:39:45.356Z,14.73
2019-05-19T02:44:50.582Z,14.97
2019-05-19T02:49:56.399Z,15.40
2019-05-19T02:55:01.235Z,14.37
2019-05-19T03:00:06.730Z,13.37
2019-05-19T03:05:13.319Z,14.47
2019-05-19T03:10:20.368Z,14.60
2019-05-19T03:15:24.516Z,13.87
2019-05-19T03:20:28.409Z,15.10
2019-05-19T03:25:32.515Z,15.13
2019-05-19T03:30:45.391Z,14.97
2019-05-19T03:35:49.440Z,15.10
2019-05-19T03:40:53.391Z,14.40
2019-05-19T03:46:00.331Z,15.03
2019-05-19T03:51:04.151Z,13.90
2019-05-19T03:56:08.176Z,12.70
2019-05-19T04:01:12.390Z,13.67
2019-05-19T04:06:18.941Z,13.73
2019-05-19T04:11:27.419Z,12.97
2019-05-19T04:16:31.319Z,12.50
2019-05-19T04:21:48.166Z,12.13
2019-05-19T04:26:41.757Z,12.67
2019-05-19T04:31:46.191Z,11.77
2019-05-19T04:36:53.543Z,11.63
2019-05-19T04:41:57.252Z,13.17
2019-05-19T04:47:01.351Z,11.77
2019-05-19T04:52:07.071Z,12.30
2019-05-19T04:57:10.619Z,12.37
2019-05-19T05:02:14.418Z,11.17
2019-05-19T05:07:18.126Z,11.33
2019-05-19T05:12:21.885Z,11.53
2019-05-19T05:17:25.619Z,11.67
2019-05-19T05:22:29.581Z,10.43
2019-05-19T05:27:33.588Z,10.73
2019-05-19T05:32:37.304Z,10.50
2019-05-19T05:37:41.252Z,9.97
2019-05-19T05:42:44.910Z,9.93
2019-05-19T05:47:48.596Z,9.77
2019-05-19T05:52:52.338Z,9.97
2019-05-19T05:57:56.049Z,9.23
2019-05-19T06:02:59.713Z,9.43
2019-05-19T06:08:03.631Z,9.43
2019-05-19T06:13:07.305Z,8.37
2019-05-19T06:18:11.259Z,9.00
2019-05-19T06:23:14.973Z,7.80
2019-05-19T06:28:18.655Z,8.27
2019-05-19T06:33:22.377Z,7.03
2019-05-19T06:38:26.057Z,7.70
2019-05-19T06:43:29.971Z,7.30
2019-05-19T06:48:33.878Z,6.80
2019-05-19T06:53:37.566Z,6.00
2019-05-19T06:58:41.254Z,6.40
2019-05-19T07:03:44.936Z,6.00
2019-05-19T07:08:48.594Z,5.93
2019-05-19T07:13:52.266Z,5.53
2019-05-19T07:18:55.970Z,5.70
2019-05-19T07:23:59.637Z,5.77
2019-05-19T07:29:03.784Z,5.67
2019-05-19T07:34:07.451Z,4.90
2019-05-19T07:39:11.191Z,5.23
2019-05-19T07:44:14.849Z,5.20
2019-05-19T07:49:18.516Z,5.30
2019-05-19T07:54:22.280Z,5.93
2019-05-19T07:59:25.942Z,5.37
2019-05-19T08:04:29.614Z,5.97
2019-05-19T08:09:33.269Z,5.30
2019-05-19T08:14:36.925Z,6.20
2019-05-19T08:19:40.603Z,5.60
2019-05-19T08:24:44.289Z,5.22
2019-05-19T08:29:47.986Z,5.20
2019-05-19T08:34:51.693Z,5.95
2019-05-19T08:39:55.596Z,6.28
2019-05-19T08:44:59.355Z,5.47
2019-05-19T08:50:03.242Z,6.37
2019-05-19T08:55:07.152Z,5.92
2019-05-19T09:00:11.179Z,5.80
2019-05-19T09:05:15.054Z,5.67
2019-05-19T09:10:18.838Z,5.20
2019-05-19T09:15:22.621Z,6.10
2019-05-19T09:20:26.349Z,5.62
2019-05-19T09:25:30.018Z,5.22
2019-05-19T09:30:33.687Z,5.05
2019-05-19T09:35:37.600Z,4.67
2019-05-19T09:40:41.406Z,5.10
2019-05-19T09:45:45.519Z,5.05
2019-05-19T09:50:49.371Z,4.50
2019-05-19T09:55:53.177Z,4.65
2019-05-19T10:00:57.063Z,4.20
2019-05-19T10:06:00.739Z,4.97
2019-05-19T10:11:41.442Z,4.78
2019-05-19T10:16:45.154Z,4.60
2019-05-19T10:21:49.070Z,4.53
2019-05-19T10:26:52.895Z,4.25
2019-05-19T10:31:56.573Z,4.40
2019-05-19T10:37:00.700Z,4.00
2019-05-19T10:42:04.451Z,4.25
2019-05-19T10:47:08.136Z,4.60
2019-05-19T10:52:11.815Z,4.37
2019-05-19T10:57:15.740Z,4.20
2019-05-19T11:02:19.549Z,4.35
2019-05-19T11:07:23.238Z,4.10
2019-05-19T11:12:26.910Z,4.50
2019-05-19T11:17:30.819Z,4.40
2019-05-19T11:22:34.481Z,3.77
2019-05-19T11:27:38.377Z,4.05
2019-05-19T11:32:42.060Z,4.17
2019-05-19T11:37:45.712Z,3.87
2019-05-19T11:42:49.699Z,3.75
2019-05-19T11:47:53.422Z,3.90
2019-05-19T11:52:57.483Z,4.03
2019-05-19T11:58:01.205Z,3.90
2019-05-19T12:03:04.938Z,3.22
2019-05-19T12:08:08.651Z,3.45
2019-05-19T12:13:12.396Z,3.08
2019-05-19T12:18:16.138Z,3.75
2019-05-19T12:23:20.134Z,3.58
2019-05-19T12:28:24.067Z,3.25
2019-05-19T12:33:27.855Z,3.50
2019-05-19T12:38:31.588Z,3.15
2019-05-19T12:43:35.570Z,3.50
2019-05-19T12:48:39.396Z,3.35
2019-05-19T12:53:43.416Z,3.08
2019-05-19T12:58:47.160Z,2.47
2019-05-19T13:03:50.905Z,3.02
2019-05-19T13:08:54.955Z,3.10
2019-05-19T13:13:59.830Z,2.70
2019-05-19T13:19:03.781Z,2.72
2019-05-19T13:24:07.767Z,2.85
2019-05-19T13:29:14.332Z,2.12
2019-05-19T13:34:18.405Z,2.92
2019-05-19T13:39:22.549Z,2.37
2019-05-19T13:44:31.546Z,2.20
2019-05-19T13:49:38.938Z,2.45
2019-05-19T13:54:44.205Z,2.45
2019-05-19T13:59:51.673Z,2.40
2019-05-19T14:04:56.912Z,2.10
2019-05-19T14:10:04.790Z,2.22
2019-05-19T14:15:13.492Z,2.15
2019-05-19T14:20:20.606Z,2.27
2019-05-19T14:26:34.131Z,2.35
2019-05-19T14:33:20.835Z,2.37
2019-05-19T14:45:48.753Z,2.25
2019-05-19T14:51:41.979Z,2.05
2019-05-19T14:57:45.275Z,2.22
2019-05-19T15:09:12.031Z,2.50
2019-05-19T15:28:00.135Z,2.22
2019-05-19T15:57:14.844Z,2.15
2019-05-19T16:03:09.141Z,2.10
2019-05-19T16:09:11.441Z,2.35
2019-05-19T16:15:39.200Z,2.12
2019-05-19T16:27:38.874Z,2.30
2019-05-19T16:52:23.284Z,2.62
2019-05-19T16:58:28.299Z,2.33
2019-05-19T17:03:26.181Z,2.58
2019-05-19T17:08:34.058Z,2.90
2019-05-19T17:19:45.804Z,2.80
2019-05-19T17:25:05.366Z,3.30
2019-05-19T17:30:20.873Z,3.65
2019-05-19T17:35:34.237Z,3.20
2019-05-19T17:40:39.829Z,3.17
2019-05-19T17:45:43.909Z,3.92
2019-05-19T17:50:48.092Z,3.22
2019-05-19T17:55:54.342Z,3.58
2019-05-19T18:01:33.850Z,3.22
2019-05-19T18:06:31.939Z,3.55
2019-05-19T18:11:37.009Z,2.90
2019-05-19T18:18:07.620Z,3.47
2019-05-19T18:23:13.162Z,4.00
2019-05-19T18:28:24.180Z,4.90
2019-05-19T18:33:31.176Z,8.13
2019-05-19T18:38:36.815Z,7.72
2019-05-19T18:43:40.546Z,4.12
2019-05-19T18:48:44.296Z,6.42
2019-05-19T18:53:48.764Z,6.65
2019-05-19T18:58:52.909Z,5.40
2019-05-19T19:03:57.976Z,5.03
2019-05-19T19:09:03.892Z,4.97
2019-05-19T19:14:07.901Z,3.72
2019-05-19T19:19:11.681Z,3.37
2019-05-19T19:24:16.353Z,3.25
2019-05-19T19:29:20.141Z,3.33
2019-05-19T19:34:23.877Z,3.65
2019-05-19T19:39:27.794Z,3.37
2019-05-19T19:44:31.522Z,3.52
2019-05-19T19:49:35.793Z,2.70
2019-05-19T19:54:42.450Z,3.20
2019-05-19T19:59:47.651Z,3.37
2019-05-19T20:04:51.480Z,3.95
2019-05-19T20:09:55.461Z,3.70
2019-05-19T20:14:59.442Z,4.08
2019-05-19T20:20:05.043Z,3.60
2019-05-19T20:25:10.738Z,4.40
2019-05-19T20:30:14.609Z,4.03
2019-05-19T20:35:18.420Z,4.17
2019-05-19T20:40:22.678Z,4.80
2019-05-19T20:45:28.212Z,6.33
2019-05-19T20:50:31.905Z,6.65
2019-05-19T20:55:35.616Z,6.35
2019-05-19T21:00:50.098Z,5.70
2019-05-19T21:05:45.159Z,6.58
2019-05-19T21:10:49.066Z,5.62
2019-05-19T21:15:52.865Z,5.58
2019-05-19T21:20:56.586Z,5.60
2019-05-19T21:26:00.302Z,5.62
2019-05-19T21:31:06.216Z,5.10
2019-05-19T21:36:10.082Z,5.15
2019-05-19T21:41:13.938Z,5.33
2019-05-19T21:46:17.709Z,4.47
2019-05-19T21:51:21.566Z,4.33
2019-05-19T21:56:25.554Z,4.83
2019-05-19T22:01:29.257Z,4.40
2019-05-19T22:06:34.593Z,4.97
2019-05-19T22:11:45.883Z,4.87
2019-05-19T22:16:49.917Z,5.03
2019-05-19T22:21:53.661Z,4.33
2019-05-19T22:26:57.386Z,5.10
2019-05-19T22:32:03.583Z,5.23
2019-05-19T22:37:07.654Z,5.30
2019-05-19T22:42:11.743Z,4.87
2019-05-19T22:47:16.041Z,5.17
2019-05-19T22:52:19.852Z,4.60
2019-05-19T22:57:23.814Z,4.63
2019-05-19T23:02:27.533Z,4.90
2019-05-19T23:07:31.454Z,4.70
2019-05-19T23:12:35.454Z,4.97
2019-05-19T23:17:39.361Z,5.33
2019-05-19T23:22:43.538Z,5.33
2019-05-19T23:27:47.245Z,4.87
2019-05-19T23:32:51.262Z,5.13
2019-05-19T23:37:55.036Z,5.13
2019-05-19T23:42:58.714Z,4.93
2019-05-19T23:48:02.398Z,5.03
2019-05-19T23:53:06.316Z,4.80
2019-05-19T23:58:10.223Z,4.93
